Kawasaki, Japan
Current Conditions -  °F | °C
As of 9:00 PM on Thursday 30 Oct 2014 (Local Time) from RJTT Reporting Station
Few Clouds Few Clouds  
Wind Chill: 63°   Ceiling: Unl
Heat Index: 63°   Visibility: 6mi
Dew Point: 57°   Wind: 3mph
Humidity: 82%   Direction: 130°SE
Pressure: 30.3"   Gusts: NA
Location:  35.53°N, 139.7°E
Report Text: RJTT 301200Z 13003KT 9999 FEW050 17/14 Q1026 BECMG 34005KT
Loading
Personal Weather Stations






























Interactive Weather Map New forecast layout! Learn more

10-Day Weather Forecast

Advertisements
Track Severe Weather on mobile